createdAt,value
2023-04-28T00:00:30.776Z,9.84
2023-04-28T00:02:03.048Z,9.81
2023-04-28T00:03:35.410Z,9.78
2023-04-28T00:05:07.931Z,9.76
2023-04-28T00:06:41.410Z,9.69
2023-04-28T00:08:13.449Z,9.70
2023-04-28T00:09:45.439Z,9.68
2023-04-28T00:11:17.460Z,9.65
2023-04-28T00:12:49.550Z,9.59
2023-04-28T00:14:21.717Z,9.51
2023-04-28T00:15:54.366Z,9.43
2023-04-28T00:17:26.612Z,9.33
2023-04-28T00:18:58.891Z,9.27
2023-04-28T00:20:31.009Z,9.21
2023-04-28T00:22:03.013Z,9.12
2023-04-28T00:23:35.740Z,9.05
2023-04-28T00:25:09.404Z,8.95
2023-04-28T00:26:41.642Z,8.86
2023-04-28T00:28:18.389Z,8.79
2023-04-28T00:29:59.133Z,8.73
2023-04-28T00:33:04.047Z,8.63
2023-04-28T00:34:39.212Z,8.58
2023-04-28T00:36:12.048Z,8.55
2023-04-28T00:37:44.188Z,8.51
2023-04-28T00:39:17.119Z,8.49
2023-04-28T00:40:49.169Z,8.45
2023-04-28T00:42:21.186Z,8.45
2023-04-28T00:43:53.343Z,8.44
2023-04-28T00:45:25.506Z,8.43
2023-04-28T00:46:59.661Z,8.48
2023-04-28T00:48:31.928Z,8.49
2023-04-28T00:50:07.346Z,8.55
2023-04-28T00:51:39.428Z,8.55
2023-04-28T00:53:12.518Z,8.59
2023-04-28T00:54:44.814Z,8.62
2023-04-28T00:56:17.464Z,8.66
2023-04-28T00:57:49.542Z,8.75
2023-04-28T00:59:21.593Z,8.78
2023-04-28T01:00:53.649Z,8.84
2023-04-28T01:02:26.345Z,8.87
2023-04-28T01:03:58.765Z,8.85
2023-04-28T01:05:31.394Z,8.81
2023-04-28T01:07:04.429Z,8.74
2023-04-28T01:08:37.455Z,8.65
2023-04-28T01:10:10.187Z,8.53
2023-04-28T01:11:42.465Z,8.41
2023-04-28T01:13:14.479Z,8.35
2023-04-28T01:14:47.021Z,8.27
2023-04-28T01:16:19.214Z,8.17
2023-04-28T01:17:51.941Z,8.10
2023-04-28T01:19:24.139Z,8.01
2023-04-28T01:20:56.645Z,7.90
2023-04-28T01:22:28.740Z,7.84
2023-04-28T01:24:01.924Z,7.76
2023-04-28T01:25:33.999Z,7.63
2023-04-28T01:27:06.505Z,7.61
2023-04-28T01:28:38.571Z,7.54
2023-04-28T01:30:12.976Z,7.52
2023-04-28T01:31:45.104Z,7.42
2023-04-28T01:33:17.262Z,7.37
2023-04-28T01:34:49.464Z,7.26
2023-04-28T01:36:23.024Z,7.15
2023-04-28T01:37:55.084Z,7.04
2023-04-28T01:39:27.150Z,6.93
2023-04-28T01:41:00.049Z,6.88
2023-04-28T01:42:32.185Z,6.83
2023-04-28T01:44:05.410Z,6.78
2023-04-28T01:45:37.381Z,6.75
2023-04-28T01:47:09.799Z,6.69
2023-04-28T01:48:41.858Z,6.62
2023-04-28T01:50:14.086Z,6.57
2023-04-28T01:51:46.187Z,6.46
2023-04-28T01:53:21.030Z,6.35
2023-04-28T01:54:53.143Z,6.25
2023-04-28T01:56:25.269Z,6.15
2023-04-28T01:57:58.810Z,6.07
2023-04-28T01:59:31.422Z,6.05
2023-04-28T02:01:03.595Z,6.04
2023-04-28T02:02:35.965Z,6.01
2023-04-28T02:04:08.093Z,5.94
2023-04-28T02:05:40.192Z,5.86
2023-04-28T02:07:12.318Z,5.79
2023-04-28T02:08:44.348Z,5.70
2023-04-28T02:10:16.527Z,5.60
2023-04-28T02:11:48.986Z,5.52
2023-04-28T02:13:21.045Z,5.42
2023-04-28T02:14:53.097Z,5.33
2023-04-28T02:16:25.316Z,5.30
2023-04-28T02:17:57.662Z,5.25
2023-04-28T02:19:32.868Z,5.21
2023-04-28T02:21:12.093Z,5.16
2023-04-28T02:22:44.106Z,5.06
2023-04-28T02:24:16.643Z,5.01
2023-04-28T02:25:48.928Z,4.97
2023-04-28T02:27:21.837Z,4.98
2023-04-28T02:28:54.040Z,4.90
2023-04-28T02:30:26.122Z,4.88
2023-04-28T02:31:58.189Z,4.86
2023-04-28T02:33:30.266Z,4.86
2023-04-28T02:35:02.506Z,4.84
2023-04-28T02:36:34.562Z,4.72
2023-04-28T02:38:06.658Z,4.71
2023-04-28T02:39:38.650Z,4.70
2023-04-28T02:41:11.079Z,4.66
2023-04-28T02:42:43.549Z,4.63
2023-04-28T02:44:15.879Z,4.61
2023-04-28T02:45:48.065Z,4.59
2023-04-28T02:47:20.118Z,4.54
2023-04-28T02:48:52.254Z,4.56
2023-04-28T02:50:24.420Z,4.56
2023-04-28T02:51:56.661Z,4.53
2023-04-28T02:53:29.087Z,4.58
2023-04-28T02:55:01.229Z,4.59
2023-04-28T02:56:34.029Z,4.58
2023-04-28T02:58:06.472Z,4.58
2023-04-28T02:59:38.584Z,4.58
2023-04-28T03:01:10.735Z,4.59
2023-04-28T03:02:42.908Z,4.61
2023-04-28T03:04:16.180Z,4.67
2023-04-28T03:05:48.421Z,4.66
2023-04-28T03:07:20.568Z,4.55
2023-04-28T03:08:52.650Z,4.49
2023-04-28T03:10:24.891Z,4.42
2023-04-28T03:11:57.017Z,4.37
2023-04-28T03:13:30.471Z,4.32
2023-04-28T03:15:02.485Z,4.36
2023-04-28T03:16:34.787Z,4.34
2023-04-28T03:18:07.006Z,4.35
2023-04-28T03:19:39.229Z,4.36
2023-04-28T03:21:11.489Z,4.36
2023-04-28T03:22:43.556Z,4.33
2023-04-28T03:24:15.906Z,4.31
2023-04-28T03:25:48.196Z,4.28
2023-04-28T03:27:20.417Z,4.23
2023-04-28T03:28:52.650Z,4.26
2023-04-28T03:30:24.811Z,4.28
2023-04-28T03:31:57.479Z,4.25
2023-04-28T03:33:29.951Z,4.18
2023-04-28T03:35:02.363Z,4.13
2023-04-28T03:36:34.431Z,4.12
2023-04-28T03:38:07.370Z,4.07
2023-04-28T03:39:39.511Z,4.02
2023-04-28T03:41:11.807Z,4.00
2023-04-28T03:42:43.992Z,4.05
2023-04-28T03:44:16.228Z,4.05
2023-04-28T03:45:49.895Z,4.07
2023-04-28T03:47:22.281Z,4.10
2023-04-28T03:48:54.496Z,4.08
2023-04-28T03:50:26.840Z,4.09
2023-04-28T03:51:59.000Z,4.11
2023-04-28T03:53:31.065Z,4.14
2023-04-28T03:55:03.194Z,4.21
2023-04-28T03:56:35.384Z,4.24
2023-04-28T03:58:07.500Z,4.26
2023-04-28T03:59:40.139Z,4.22
2023-04-28T04:01:12.633Z,4.20
2023-04-28T04:02:45.005Z,4.21
2023-04-28T04:04:17.970Z,4.21
2023-04-28T04:05:50.637Z,4.19
2023-04-28T04:07:23.559Z,4.20
2023-04-28T04:08:55.970Z,4.17
2023-04-28T04:10:28.270Z,4.16
2023-04-28T04:12:01.626Z,4.16
2023-04-28T04:13:33.770Z,4.14
2023-04-28T04:15:06.705Z,4.16
2023-04-28T04:16:39.560Z,4.14
2023-04-28T04:18:11.761Z,4.17
2023-04-28T04:19:43.817Z,4.21
2023-04-28T04:21:16.038Z,4.23
2023-04-28T04:22:48.355Z,4.26
2023-04-28T04:24:20.441Z,4.29
2023-04-28T04:25:52.566Z,4.37
2023-04-28T04:27:24.822Z,4.40
2023-04-28T04:28:57.199Z,4.52
2023-04-28T04:30:29.358Z,4.63
2023-04-28T04:32:01.411Z,4.73
2023-04-28T04:33:35.036Z,4.83
2023-04-28T04:35:07.492Z,4.95
2023-04-28T04:36:39.629Z,5.00
2023-04-28T04:38:11.813Z,5.08
2023-04-28T04:39:43.962Z,5.16
2023-04-28T04:41:16.252Z,5.22
2023-04-28T04:42:48.368Z,5.30
2023-04-28T04:44:20.495Z,5.36
2023-04-28T04:45:52.579Z,5.42
2023-04-28T04:47:24.954Z,5.49
2023-04-28T04:48:57.334Z,5.58
2023-04-28T04:50:29.390Z,5.64
2023-04-28T04:52:02.176Z,5.68
2023-04-28T04:53:34.398Z,5.74
2023-04-28T04:55:07.284Z,5.83
2023-04-28T04:56:39.495Z,5.88
2023-04-28T04:58:11.997Z,5.96
2023-04-28T04:59:44.102Z,6.02
2023-04-28T05:01:16.268Z,6.12
2023-04-28T05:02:51.573Z,6.17
2023-04-28T05:04:24.235Z,6.26
2023-04-28T05:05:56.472Z,6.33
2023-04-28T05:07:28.575Z,6.38
2023-04-28T05:09:00.770Z,6.42
2023-04-28T05:10:33.207Z,6.49
2023-04-28T05:12:06.066Z,6.57
2023-04-28T05:13:38.167Z,6.65
2023-04-28T05:15:10.709Z,6.73
2023-04-28T05:16:42.988Z,6.81
2023-04-28T05:18:15.411Z,6.87
2023-04-28T05:19:47.464Z,6.96
2023-04-28T05:21:19.577Z,7.05
2023-04-28T05:22:51.804Z,7.14
2023-04-28T05:24:24.375Z,7.23
2023-04-28T05:25:56.602Z,7.35
2023-04-28T05:27:28.891Z,7.46
2023-04-28T05:29:01.011Z,7.59
2023-04-28T05:30:33.765Z,7.71
2023-04-28T05:32:06.458Z,7.83
2023-04-28T05:33:38.624Z,7.89
2023-04-28T05:35:11.003Z,7.96
2023-04-28T05:36:43.609Z,8.06
2023-04-28T05:38:15.775Z,8.12
2023-04-28T05:39:47.953Z,8.18
2023-04-28T05:41:20.137Z,8.25
2023-04-28T05:42:52.264Z,8.33
2023-04-28T05:44:24.621Z,8.41
2023-04-28T05:45:56.992Z,8.50
2023-04-28T05:47:30.743Z,8.57
2023-04-28T05:49:02.983Z,8.64
2023-04-28T05:50:36.058Z,8.73
2023-04-28T05:52:09.159Z,8.79
2023-04-28T05:53:41.521Z,8.83
2023-04-28T05:55:16.355Z,8.85
2023-04-28T05:56:48.521Z,8.94
2023-04-28T05:58:20.638Z,9.02
2023-04-28T05:59:52.834Z,9.06
2023-04-28T06:01:28.567Z,9.08
2023-04-28T06:03:01.216Z,9.14
2023-04-28T06:04:33.763Z,9.20
2023-04-28T06:06:09.781Z,9.18
2023-04-28T06:07:42.415Z,9.21
2023-04-28T06:09:14.747Z,9.28
2023-04-28T06:10:47.246Z,9.38
2023-04-28T06:12:19.903Z,9.45
2023-04-28T06:13:52.203Z,9.55
2023-04-28T06:15:24.489Z,9.63
2023-04-28T06:16:56.710Z,9.68
2023-04-28T06:18:32.980Z,9.78
2023-04-28T06:20:06.415Z,9.86
2023-04-28T06:21:38.591Z,9.96
2023-04-28T06:23:10.746Z,9.97
2023-04-28T06:24:43.330Z,10.02
2023-04-28T06:26:17.987Z,10.11
2023-04-28T06:27:50.443Z,10.19
2023-04-28T06:29:24.450Z,10.19
2023-04-28T06:30:56.556Z,10.27
2023-04-28T06:32:28.911Z,10.35
2023-04-28T06:34:01.122Z,10.43
2023-04-28T06:35:36.109Z,10.50
2023-04-28T06:37:08.280Z,10.58
2023-04-28T06:38:43.260Z,10.63
2023-04-28T06:40:15.482Z,10.68
2023-04-28T06:41:47.880Z,10.73
2023-04-28T06:43:20.456Z,10.81
2023-04-28T06:44:52.630Z,10.90
2023-04-28T06:46:24.990Z,10.94
2023-04-28T06:47:57.337Z,10.97
2023-04-28T06:49:29.550Z,11.02
2023-04-28T06:51:01.775Z,11.13
2023-04-28T06:52:39.177Z,11.26
2023-04-28T06:54:11.998Z,11.37
2023-04-28T06:55:44.199Z,11.45
2023-04-28T06:57:16.316Z,11.53
2023-04-28T06:58:51.219Z,11.55
2023-04-28T07:01:57.701Z,11.67
2023-04-28T07:03:29.979Z,11.75
2023-04-28T07:05:02.168Z,11.71
2023-04-28T07:06:34.286Z,11.68
2023-04-28T07:08:06.897Z,11.62
2023-04-28T07:09:39.691Z,11.65
2023-04-28T07:11:12.031Z,11.64
2023-04-28T07:12:44.213Z,11.65
2023-04-28T07:14:16.653Z,11.65
2023-04-28T07:15:48.960Z,11.66
2023-04-28T07:17:21.044Z,11.72
2023-04-28T07:18:53.175Z,11.79
2023-04-28T07:20:25.423Z,11.91
2023-04-28T07:21:57.666Z,11.97
2023-04-28T07:23:29.878Z,12.05
2023-04-28T07:25:02.029Z,12.14
2023-04-28T07:26:34.348Z,12.19
2023-04-28T07:28:06.822Z,12.05
2023-04-28T07:29:38.973Z,12.09
2023-04-28T07:31:11.114Z,12.13
2023-04-28T07:32:44.354Z,12.23
2023-04-28T07:34:16.784Z,12.28
2023-04-28T07:35:49.895Z,12.30
2023-04-28T07:37:22.016Z,12.39
2023-04-28T07:38:54.265Z,12.46
2023-04-28T07:40:26.364Z,12.51
2023-04-28T07:41:59.466Z,12.59
2023-04-28T07:43:31.666Z,12.61
2023-04-28T07:45:06.035Z,12.67
2023-04-28T07:46:38.507Z,12.67
2023-04-28T07:48:10.767Z,12.68
2023-04-28T07:49:42.872Z,12.71
2023-04-28T07:51:14.996Z,12.76
2023-04-28T07:52:47.157Z,12.70
2023-04-28T07:54:19.698Z,12.73
2023-04-28T07:55:52.142Z,12.69
2023-04-28T07:57:24.286Z,12.76
2023-04-28T07:58:56.558Z,12.85
2023-04-28T08:00:28.893Z,12.83
2023-04-28T08:02:01.086Z,12.89
2023-04-28T08:03:33.636Z,12.88
2023-04-28T08:06:38.971Z,12.89
2023-04-28T08:08:11.160Z,13.00
2023-04-28T08:09:47.578Z,13.03
2023-04-28T08:11:19.829Z,13.03
2023-04-28T08:12:53.234Z,13.10
2023-04-28T08:14:25.431Z,13.19
2023-04-28T08:15:57.700Z,13.13
2023-04-28T08:17:29.833Z,13.20
2023-04-28T08:19:02.206Z,13.20
2023-04-28T08:20:34.458Z,13.23
2023-04-28T08:22:07.614Z,13.27
2023-04-28T08:23:39.785Z,13.32
2023-04-28T08:25:11.975Z,13.33
2023-04-28T08:26:44.483Z,13.31
2023-04-28T08:28:16.957Z,13.33
2023-04-28T08:29:49.025Z,13.33
2023-04-28T08:31:21.177Z,13.34
2023-04-28T08:32:53.544Z,13.37
2023-04-28T08:34:25.717Z,13.43
2023-04-28T08:35:57.913Z,13.49
2023-04-28T08:37:30.178Z,13.54
2023-04-28T08:39:04.566Z,13.60
2023-04-28T08:40:37.877Z,13.64
2023-04-28T08:42:10.203Z,13.69
2023-04-28T08:43:43.653Z,13.75
2023-04-28T08:45:16.191Z,13.79
2023-04-28T08:46:50.416Z,13.80
2023-04-28T08:48:23.125Z,13.78
2023-04-28T08:49:56.490Z,13.79
2023-04-28T08:51:33.811Z,13.91
2023-04-28T08:53:07.666Z,13.98
2023-04-28T08:54:43.520Z,14.02
2023-04-28T08:56:17.273Z,14.04
2023-04-28T08:57:52.656Z,14.04
2023-04-28T08:59:25.164Z,14.01
2023-04-28T09:00:57.342Z,14.01
2023-04-28T09:02:29.547Z,14.06
2023-04-28T09:05:34.881Z,14.13
2023-04-28T09:07:13.530Z,14.24
2023-04-28T09:08:45.739Z,14.19
2023-04-28T09:10:25.128Z,14.25
2023-04-28T09:12:05.286Z,14.15
2023-04-28T09:13:38.050Z,14.20
2023-04-28T09:15:10.798Z,14.28
2023-04-28T09:16:42.952Z,14.28
2023-04-28T09:18:16.011Z,14.30
2023-04-28T09:19:48.411Z,14.33
2023-04-28T09:21:20.670Z,14.41
2023-04-28T09:22:54.390Z,14.49
2023-04-28T09:24:37.224Z,14.61
2023-04-28T09:26:09.375Z,14.56
2023-04-28T09:27:41.577Z,14.46
2023-04-28T09:29:14.318Z,14.32
2023-04-28T09:30:46.477Z,14.33
2023-04-28T09:32:21.297Z,14.35
2023-04-28T09:34:00.589Z,14.41
2023-04-28T09:35:43.395Z,14.48
2023-04-28T09:37:23.215Z,14.55
2023-04-28T09:38:58.501Z,14.57
2023-04-28T09:40:30.780Z,14.65
2023-04-28T09:42:04.116Z,14.66
2023-04-28T09:43:36.527Z,14.73
2023-04-28T09:45:16.396Z,14.83
2023-04-28T09:46:49.010Z,14.84
2023-04-28T09:48:31.759Z,14.77
2023-04-28T09:50:09.004Z,14.73
2023-04-28T09:51:41.549Z,14.68
2023-04-28T09:53:13.923Z,14.74
2023-04-28T09:54:46.287Z,14.70
2023-04-28T09:56:21.385Z,14.80
2023-04-28T09:57:55.227Z,14.92
2023-04-28T09:59:28.219Z,14.96
2023-04-28T10:01:01.490Z,15.05
2023-04-28T10:04:12.606Z,15.36
2023-04-28T10:05:45.727Z,15.38
2023-04-28T10:07:20.225Z,15.48
2023-04-28T10:08:52.580Z,15.51
2023-04-28T10:10:25.623Z,15.45
2023-04-28T10:11:57.859Z,15.25
2023-04-28T10:13:30.429Z,15.43
2023-04-28T10:15:02.658Z,15.52
2023-04-28T10:16:35.173Z,15.54
2023-04-28T10:18:08.154Z,15.51
2023-04-28T10:19:42.068Z,15.58
2023-04-28T10:21:18.958Z,15.58
2023-04-28T10:23:25.324Z,15.61
2023-04-28T10:25:12.490Z,15.50
2023-04-28T10:27:03.765Z,15.52
2023-04-28T10:28:36.050Z,15.54
2023-04-28T10:32:22.297Z,15.40
2023-04-28T10:33:55.165Z,15.47
2023-04-28T10:35:37.955Z,15.50
2023-04-28T10:37:10.165Z,15.58
2023-04-28T10:39:14.680Z,15.75
2023-04-28T10:40:47.960Z,15.82
2023-04-28T10:44:31.523Z,15.78
2023-04-28T10:46:06.661Z,15.82
2023-04-28T10:48:06.666Z,15.82
2023-04-28T10:49:57.957Z,15.64
2023-04-28T10:51:30.724Z,15.68
2023-04-28T10:53:02.917Z,15.54
2023-04-28T10:54:35.093Z,15.35
2023-04-28T10:56:07.591Z,15.39
2023-04-28T10:57:39.741Z,15.35
2023-04-28T10:59:30.653Z,15.45
2023-04-28T11:01:21.128Z,15.51
2023-04-28T11:02:53.753Z,15.50
2023-04-28T11:04:26.377Z,15.46
2023-04-28T11:06:27.784Z,15.35
2023-04-28T11:08:25.991Z,15.15
2023-04-28T11:09:58.252Z,15.08
2023-04-28T11:11:31.728Z,15.10
2023-04-28T11:13:26.434Z,15.12
2023-04-28T11:15:12.430Z,15.17
2023-04-28T11:16:55.179Z,15.29
2023-04-28T11:18:29.101Z,15.41
2023-04-28T11:20:02.714Z,15.52
2023-04-28T11:21:34.918Z,15.63
2023-04-28T11:23:08.499Z,15.76
2023-04-28T11:24:40.674Z,15.63
2023-04-28T11:26:15.823Z,15.46
2023-04-28T11:27:50.944Z,15.51
2023-04-28T11:29:36.767Z,15.68
2023-04-28T11:31:19.776Z,15.86
2023-04-28T11:32:52.186Z,16.03
2023-04-28T11:34:25.492Z,16.08
2023-04-28T11:35:57.559Z,16.13
2023-04-28T11:37:29.692Z,16.27
2023-04-28T11:39:05.430Z,16.33
2023-04-28T11:40:37.633Z,16.38
2023-04-28T11:42:10.841Z,16.48
2023-04-28T11:43:47.391Z,16.52
2023-04-28T11:45:20.102Z,16.49
2023-04-28T11:46:57.634Z,16.56
2023-04-28T11:48:29.714Z,16.43
2023-04-28T11:50:02.410Z,16.55
2023-04-28T11:51:37.308Z,16.71
2023-04-28T11:53:09.535Z,16.71
2023-04-28T11:54:44.632Z,16.68
2023-04-28T11:56:16.752Z,16.51
2023-04-28T11:57:49.007Z,16.52
2023-04-28T11:59:29.686Z,16.65
2023-04-28T12:01:11.861Z,16.65
2023-04-28T12:02:44.273Z,16.69
2023-04-28T12:04:38.317Z,16.88
2023-04-28T12:06:10.609Z,17.01
2023-04-28T12:07:46.065Z,17.14
2023-04-28T12:09:21.829Z,16.99
2023-04-28T12:11:14.302Z,16.94
2023-04-28T12:12:52.505Z,16.94
2023-04-28T12:14:26.047Z,16.97
2023-04-28T12:16:03.122Z,16.94
2023-04-28T12:17:40.487Z,16.95
2023-04-28T12:19:13.264Z,16.97
2023-04-28T12:20:45.537Z,17.07
2023-04-28T12:22:18.311Z,17.10
2023-04-28T12:23:50.986Z,17.23
2023-04-28T12:25:23.073Z,17.30
2023-04-28T12:26:55.561Z,17.30
2023-04-28T12:28:41.376Z,17.13
2023-04-28T12:30:23.253Z,17.11
2023-04-28T12:31:55.553Z,16.95
2023-04-28T12:33:29.390Z,17.01
2023-04-28T12:35:01.453Z,16.73
2023-04-28T12:36:33.605Z,16.84
2023-04-28T12:38:05.715Z,16.93
2023-04-28T12:39:39.765Z,17.07
2023-04-28T12:41:12.210Z,17.19
2023-04-28T12:42:44.492Z,17.29
2023-04-28T12:44:16.663Z,16.97
2023-04-28T12:45:49.536Z,16.91
2023-04-28T12:47:21.674Z,16.91
2023-04-28T12:48:54.212Z,17.06
2023-04-28T12:50:28.368Z,17.17
2023-04-28T12:52:00.514Z,17.12
2023-04-28T12:53:32.795Z,17.28
2023-04-28T12:55:05.465Z,17.33
2023-04-28T12:56:37.647Z,17.23
2023-04-28T12:58:09.765Z,17.17
2023-04-28T12:59:42.424Z,17.25
2023-04-28T13:01:16.410Z,17.11
2023-04-28T13:02:48.662Z,16.94
2023-04-28T13:04:21.167Z,16.68
2023-04-28T13:05:53.452Z,16.53
2023-04-28T13:07:25.588Z,16.62
2023-04-28T13:08:57.679Z,16.66
2023-04-28T13:10:30.294Z,16.65
2023-04-28T13:12:07.288Z,16.52
2023-04-28T13:13:39.480Z,16.34
2023-04-28T13:15:12.283Z,16.44
2023-04-28T13:16:44.478Z,16.61
2023-04-28T13:18:16.674Z,16.76
2023-04-28T13:19:49.253Z,16.92
2023-04-28T13:21:21.318Z,16.85
2023-04-28T13:22:53.466Z,16.88
2023-04-28T13:24:25.517Z,16.83
2023-04-28T13:25:57.600Z,16.83
2023-04-28T13:27:31.051Z,16.95
2023-04-28T13:29:04.456Z,17.18
2023-04-28T13:30:36.474Z,17.29
2023-04-28T13:32:09.062Z,17.32
2023-04-28T13:33:41.545Z,17.46
2023-04-28T13:35:13.898Z,17.44
2023-04-28T13:36:46.193Z,17.35
2023-04-28T13:38:19.411Z,17.43
2023-04-28T13:39:51.628Z,17.46
2023-04-28T13:41:23.764Z,17.47
2023-04-28T13:42:58.381Z,17.23
2023-04-28T13:44:30.596Z,17.16
2023-04-28T13:47:34.911Z,17.11
2023-04-28T13:49:07.176Z,17.25
2023-04-28T13:50:39.659Z,17.19
2023-04-28T13:52:12.015Z,17.11
2023-04-28T13:53:44.288Z,17.10
2023-04-28T13:55:16.681Z,17.11
2023-04-28T13:56:49.137Z,17.24
2023-04-28T13:58:21.286Z,17.29
2023-04-28T13:59:53.657Z,17.37
2023-04-28T14:01:25.879Z,17.34
2023-04-28T14:02:58.255Z,17.37
2023-04-28T14:04:30.894Z,17.39
2023-04-28T14:06:03.478Z,17.57
2023-04-28T14:07:35.830Z,17.56
2023-04-28T14:09:08.500Z,17.36
2023-04-28T14:10:40.652Z,17.47
2023-04-28T14:12:14.253Z,17.21
2023-04-28T14:13:46.417Z,17.24
2023-04-28T14:15:18.538Z,17.34
2023-04-28T14:16:50.794Z,17.45
2023-04-28T14:18:23.000Z,17.53
2023-04-28T14:19:55.171Z,17.48
2023-04-28T14:21:27.297Z,17.50
2023-04-28T14:22:59.958Z,17.59
2023-04-28T14:24:32.321Z,17.68
2023-04-28T14:26:04.704Z,17.39
2023-04-28T14:27:36.974Z,17.38
2023-04-28T14:29:09.785Z,17.43
2023-04-28T14:30:42.160Z,17.33
2023-04-28T14:32:16.796Z,17.18
2023-04-28T14:33:48.904Z,17.11
2023-04-28T14:35:21.962Z,16.99
2023-04-28T14:36:54.055Z,16.83
2023-04-28T14:38:26.276Z,16.71
2023-04-28T14:39:58.720Z,16.65
2023-04-28T14:41:30.934Z,16.95
2023-04-28T14:43:03.070Z,17.13
2023-04-28T14:44:35.528Z,17.23
2023-04-28T14:46:08.430Z,17.20
2023-04-28T14:47:41.753Z,17.14
2023-04-28T14:49:13.792Z,17.20
2023-04-28T14:50:46.560Z,17.26
2023-04-28T14:52:18.781Z,17.30
2023-04-28T14:53:51.338Z,17.17
2023-04-28T14:55:23.563Z,17.07
2023-04-28T14:56:55.677Z,16.94
2023-04-28T14:58:27.966Z,16.99
2023-04-28T15:00:00.310Z,17.10
2023-04-28T15:01:32.392Z,16.98
2023-04-28T15:03:04.817Z,16.95
2023-04-28T15:04:37.202Z,16.94
2023-04-28T15:06:09.474Z,16.90
2023-04-28T15:07:41.556Z,16.92
2023-04-28T15:09:14.001Z,16.91
2023-04-28T15:10:46.296Z,16.67
2023-04-28T15:12:18.478Z,16.57
2023-04-28T15:13:50.591Z,16.50
2023-04-28T15:16:55.509Z,16.47
2023-04-28T15:18:28.506Z,16.50
2023-04-28T15:20:00.761Z,16.52
2023-04-28T15:21:33.241Z,16.56
2023-04-28T15:23:05.360Z,16.58
2023-04-28T15:24:37.416Z,16.61
2023-04-28T15:26:11.267Z,16.64
2023-04-28T15:27:43.980Z,16.56
2023-04-28T15:29:16.592Z,16.52
2023-04-28T15:30:48.857Z,16.49
2023-04-28T15:32:20.983Z,16.35
2023-04-28T15:33:53.320Z,16.38
2023-04-28T15:35:25.444Z,16.23
2023-04-28T15:36:57.609Z,16.23
2023-04-28T15:38:31.815Z,16.20
2023-04-28T15:40:07.638Z,16.30
2023-04-28T15:41:39.820Z,16.34
2023-04-28T15:43:13.718Z,16.29
2023-04-28T15:44:45.974Z,16.27
2023-04-28T15:46:18.241Z,16.28
2023-04-28T15:47:51.337Z,16.18
2023-04-28T15:49:23.532Z,16.15
2023-04-28T15:50:56.262Z,16.19
2023-04-28T15:52:28.456Z,16.15
2023-04-28T15:54:00.916Z,16.14
2023-04-28T15:55:33.176Z,16.17
2023-04-28T15:57:05.985Z,16.17
2023-04-28T15:58:38.280Z,16.06
2023-04-28T16:00:11.842Z,15.89
2023-04-28T16:01:44.387Z,15.91
2023-04-28T16:03:17.325Z,15.85
2023-04-28T16:04:49.701Z,15.86
2023-04-28T16:06:22.028Z,15.85
2023-04-28T16:07:55.441Z,15.83
2023-04-28T16:09:27.449Z,15.87
2023-04-28T16:10:59.608Z,15.81
2023-04-28T16:12:31.805Z,15.77
2023-04-28T16:14:04.653Z,15.77
2023-04-28T16:15:36.831Z,15.76
2023-04-28T16:17:09.176Z,15.77
2023-04-28T16:18:41.418Z,15.76
2023-04-28T16:20:13.862Z,15.78
2023-04-28T16:21:46.049Z,15.73
2023-04-28T16:23:19.125Z,15.68
2023-04-28T16:26:22.997Z,15.59
2023-04-28T16:27:55.250Z,15.51
2023-04-28T16:29:27.390Z,15.52
2023-04-28T16:30:59.874Z,15.53
2023-04-28T16:32:33.897Z,15.55
2023-04-28T16:34:06.042Z,15.55
2023-04-28T16:35:38.302Z,15.55
2023-04-28T16:37:12.077Z,15.50
2023-04-28T16:38:46.162Z,15.47
2023-04-28T16:40:18.786Z,15.44
2023-04-28T16:41:51.047Z,15.38
2023-04-28T16:43:23.286Z,15.33
2023-04-28T16:44:55.504Z,15.30
2023-04-28T16:46:27.914Z,15.25
2023-04-28T16:48:00.159Z,15.17
2023-04-28T16:49:32.464Z,15.14
2023-04-28T16:51:08.582Z,15.12
2023-04-28T16:52:41.086Z,15.12
2023-04-28T16:54:13.300Z,15.09
2023-04-28T16:55:45.477Z,15.07
2023-04-28T16:57:17.570Z,15.03
2023-04-28T16:58:49.714Z,14.96
2023-04-28T17:00:22.214Z,14.88
2023-04-28T17:01:54.368Z,14.87
2023-04-28T17:03:26.935Z,14.81
2023-04-28T17:05:01.869Z,14.75
2023-04-28T17:06:34.254Z,14.65
2023-04-28T17:08:06.308Z,14.53
2023-04-28T17:09:39.031Z,14.45
2023-04-28T17:11:11.673Z,14.35
2023-04-28T17:12:45.980Z,14.25
2023-04-28T17:14:18.885Z,14.12
2023-04-28T17:15:58.188Z,14.06
2023-04-28T17:17:30.382Z,13.92
2023-04-28T17:19:03.184Z,13.82
2023-04-28T17:20:35.745Z,13.69
2023-04-28T17:22:07.824Z,13.56
2023-04-28T17:23:40.492Z,13.42
2023-04-28T17:25:13.143Z,13.27
2023-04-28T17:26:45.519Z,13.13
2023-04-28T17:28:17.664Z,13.03
2023-04-28T17:29:50.103Z,12.91
2023-04-28T17:31:23.328Z,12.71
2023-04-28T17:32:55.740Z,12.64
2023-04-28T17:34:27.877Z,12.47
2023-04-28T17:36:00.003Z,12.34
2023-04-28T17:37:35.304Z,12.27
2023-04-28T17:39:07.754Z,12.11
2023-04-28T17:40:39.913Z,12.00
2023-04-28T17:42:12.100Z,11.86
2023-04-28T17:43:44.309Z,11.81
2023-04-28T17:45:16.505Z,11.74
2023-04-28T17:46:48.860Z,11.62
2023-04-28T17:48:21.428Z,11.52
2023-04-28T17:49:53.649Z,11.36
2023-04-28T17:51:26.024Z,11.21
2023-04-28T17:52:58.467Z,11.11
2023-04-28T17:54:32.437Z,11.03
2023-04-28T17:56:04.661Z,10.95
2023-04-28T17:57:37.112Z,10.86
2023-04-28T17:59:09.340Z,10.78
2023-04-28T18:00:41.449Z,10.67
2023-04-28T18:02:13.975Z,10.58
2023-04-28T18:03:46.426Z,10.47
2023-04-28T18:05:18.669Z,10.40
2023-04-28T18:06:50.900Z,10.35
2023-04-28T18:08:24.177Z,10.30
2023-04-28T18:09:57.742Z,10.22
2023-04-28T18:11:30.177Z,10.16
2023-04-28T18:13:02.933Z,10.09
2023-04-28T18:14:35.168Z,10.06
2023-04-28T18:16:11.164Z,10.03
2023-04-28T18:17:46.334Z,9.92
2023-04-28T18:19:18.425Z,9.87
2023-04-28T18:20:50.781Z,9.81
2023-04-28T18:22:23.141Z,9.70
2023-04-28T18:23:55.283Z,9.66
2023-04-28T18:25:27.950Z,9.63
2023-04-28T18:27:01.150Z,9.54
2023-04-28T18:28:34.498Z,9.48
2023-04-28T18:30:08.445Z,9.40
2023-04-28T18:31:41.185Z,9.38
2023-04-28T18:33:13.617Z,9.34
2023-04-28T18:34:45.871Z,9.29
2023-04-28T18:36:18.046Z,9.27
2023-04-28T18:37:50.136Z,9.17
2023-04-28T18:39:23.370Z,9.06
2023-04-28T18:40:55.596Z,8.97
2023-04-28T19:29:17.472Z,7.40
2023-04-28T19:30:50.306Z,7.28
2023-04-28T19:32:22.526Z,7.21
2023-04-28T19:33:54.835Z,7.14
2023-04-28T19:35:27.592Z,7.09
2023-04-28T19:37:00.223Z,7.04
2023-04-28T19:38:32.699Z,7.01
2023-04-28T19:40:05.403Z,6.97
2023-04-28T19:41:37.519Z,6.93
2023-04-28T19:43:10.160Z,6.87
2023-04-28T19:44:42.419Z,6.81
2023-04-28T19:46:15.622Z,6.75
2023-04-28T19:47:47.883Z,6.68
2023-04-28T19:49:20.018Z,6.61
2023-04-28T19:50:52.457Z,6.59
2023-04-28T19:52:24.878Z,6.54
2023-04-28T19:53:57.225Z,6.48
2023-04-28T19:55:29.759Z,6.43
2023-04-28T19:57:02.218Z,6.40
2023-04-28T19:58:34.363Z,6.35
2023-04-28T20:00:08.549Z,6.30
2023-04-28T20:01:42.824Z,6.27
2023-04-28T20:03:15.334Z,6.20
2023-04-28T20:04:49.310Z,6.25
2023-04-28T20:06:21.539Z,6.29
2023-04-28T20:07:56.249Z,6.30
2023-04-28T20:09:28.750Z,6.30
2023-04-28T20:11:00.867Z,6.23
2023-04-28T20:12:33.591Z,6.19
2023-04-28T20:14:05.819Z,6.15
2023-04-28T20:15:38.197Z,6.08
2023-04-28T20:17:10.684Z,6.05
2023-04-28T20:18:42.916Z,6.02
2023-04-28T20:20:15.100Z,6.02
2023-04-28T20:21:47.293Z,6.02
2023-04-28T20:23:19.469Z,6.00
2023-04-28T20:24:51.610Z,6.00
2023-04-28T20:26:23.749Z,5.97
2023-04-28T20:27:55.999Z,5.93
2023-04-28T20:29:31.573Z,5.90
2023-04-28T20:31:03.827Z,5.88
2023-04-28T20:32:37.068Z,5.86
2023-04-28T20:34:09.227Z,5.82
2023-04-28T20:35:41.382Z,5.79
2023-04-28T20:37:14.400Z,5.76
2023-04-28T20:38:46.544Z,5.75
2023-04-28T20:40:18.753Z,5.81
2023-04-28T20:41:51.019Z,5.84
2023-04-28T20:43:24.438Z,5.84
2023-04-28T20:44:56.447Z,5.94
2023-04-28T20:46:28.635Z,5.85
2023-04-28T20:48:00.978Z,5.81
2023-04-28T20:49:35.892Z,5.77
2023-04-28T20:51:08.096Z,5.61
2023-04-28T20:52:40.350Z,5.53
2023-04-28T20:54:13.327Z,5.46
2023-04-28T20:55:45.458Z,5.39
2023-04-28T20:57:17.614Z,5.33
2023-04-28T20:58:49.821Z,5.28
2023-04-28T21:00:22.097Z,5.25
2023-04-28T21:01:55.029Z,5.22
2023-04-28T21:03:27.333Z,5.26
2023-04-28T21:04:59.368Z,5.27
2023-04-28T21:06:31.430Z,5.32
2023-04-28T21:08:03.808Z,5.34
2023-04-28T21:09:38.005Z,5.36
2023-04-28T21:11:17.847Z,5.47
2023-04-28T21:12:49.945Z,5.46
2023-04-28T21:14:22.625Z,5.43
2023-04-28T21:15:54.657Z,5.40
2023-04-28T21:17:26.840Z,5.38
2023-04-28T21:19:01.327Z,5.39
2023-04-28T21:20:33.641Z,5.45
2023-04-28T21:22:05.799Z,5.48